Sigfox identifier Datetime Temperature Humidity SNR
00386679 2018-10-09 07:43:24 21.2 37 11.7
00386679 2018-10-09 06:39:47 21.2 37 11.7
00386679 2018-10-09 00:17:41 21.2 37 11.9
00386679 2018-10-08 23:14:04 21.2 36 12.2
00386679 2018-10-08 16:51:52 21 36 12.2
00386679 2018-10-08 00:56:39 20.9 37 12.2
00386679 2018-10-07 07:58:14 21.1 38 12.4
00386679 2018-10-06 10:44:03 21.4 39 12.5
00386679 2018-10-06 04:21:50 21.4 39 12.7
00386679 2018-10-06 03:18:07 21.4 39 12.7
00386679 2018-10-06 01:10:40 21.4 39 12.9
00386679 2018-10-05 18:48:17 21.5 38 12.9
00386679 2018-10-05 16:40:54 21.4 38 13.3
00386679 2018-10-05 14:33:33 21.3 37 13.5
00386679 2018-10-05 13:29:48 21.3 37 13.3
00386679 2018-10-05 11:22:21 21.1 35 13.6
00386679 2018-10-05 10:18:40 21 34 13.5
00386679 2018-10-05 09:14:53 21 33 13.3
00386679 2018-10-05 08:11:09 21 32 13.4
00386679 2018-10-05 07:07:23 21 32 13.1
00386679 2018-10-05 06:03:38 21 32 13.1
00386679 2018-10-05 04:59:55 21 32 13.2
00386679 2018-10-05 03:56:12 21 32 13.2
00386679 2018-10-05 02:52:29 21 32 13.3
00386679 2018-10-05 01:48:48 21 32 13.4
00386679 2018-10-05 00:45:02 21 32 13.4
00386679 2018-10-04 23:41:18 21 32 13.5
00386679 2018-10-04 22:37:37 21 32 16.8
00386679 2018-10-04 21:33:48 21 32 16.6
00386679 2018-10-04 20:30:02 21 33 16.9
00386679 2018-10-04 18:22:32 21 33 17
00386679 2018-10-04 17:18:46 20.9 33 17.2
00386679 2018-10-04 16:14:58 20.8 33 17.2
00386679 2018-10-04 15:11:13 20.8 33 17.1
00386679 2018-10-04 14:07:30 20.6 34 17.1
00386679 2018-10-04 11:59:59 20.6 35 17.1
00386679 2018-10-04 10:56:13 20.6 35 17.1
00386679 2018-10-04 09:52:24 20.5 36 16.9
00386679 2018-10-04 08:48:43 20.6 36 16.9
00386679 2018-10-04 07:44:57 20.6 36 16.8
00386679 2018-10-04 05:37:16 20.6 38 16.7
00386679 2018-10-04 04:33:29 20.6 38 16.8
00386679 2018-10-04 03:29:42 20.6 39 16.8
00386679 2018-10-04 02:25:53 20.6 39 16.5
00386679 2018-10-04 01:22:10 20.6 39 16.5
00386679 2018-10-04 00:18:26 20.6 40 16.4
00386679 2018-10-03 23:14:36 20.7 40 16.4
00386679 2018-10-03 22:10:50 20.8 41 16.4
00386679 2018-10-03 21:07:06 20.7 41 16.9
00386679 2018-10-03 20:03:15 20.7 41 17
00386679 2018-10-03 18:59:27 20.8 41 17.2
00386679 2018-10-03 17:55:40 20.8 42 17.3
00386679 2018-10-03 16:51:51 20.7 42 14
00386679 2018-10-03 15:48:01 20.6 43 14.1
00386679 2018-10-03 14:44:13 20.5 43 13.7
00386679 2018-10-03 13:40:26 20.4 42 13.5
00386679 2018-10-03 11:32:52 20.5 41 12.9
00386679 2018-10-03 08:21:20 20.2 40 13
00386679 2018-10-03 07:17:30 20.3 41 13.1
00386679 2018-10-03 06:13:42 20.3 41 13.3
00386679 2018-10-03 05:09:55 20.4 41 13.4
00386679 2018-10-03 04:06:05 20.4 42 13.7
00386679 2018-10-03 03:02:13 20.4 42 13.9
00386679 2018-10-03 01:58:21 20.4 42 14
00386679 2018-10-03 00:54:30 20.4 42 14.4
00386679 2018-10-02 23:50:45 20.4 42 14.7
00386679 2018-10-02 22:46:53 20.4 42 15.1
00386679 2018-10-02 21:43:04 20.4 42 15.5
00386679 2018-10-02 20:39:12 20.5 42 16
00386679 2018-10-02 19:35:21 20.6 42 16.9
00386679 2018-10-02 18:31:26 20.6 42 18
00386679 2018-10-02 17:27:38 20.8 42 19.6
00386679 2018-10-02 16:23:43 20.6 41 22.4
00386679 2018-10-02 15:19:49 19.7 52 0